Ertholm — OVJX — position and weather

sailwx.info

Track history (hours):
 
Tides and Currents Weather Stations Pressure Air Temp Water Temp Dewpoint Dewpoint Depression Visibility Wind Speed Wind Dir Waves Ship Positions

Ertholm

Last reported at 2016-Sep-27 00:34 UTC. Time now 2016-Sep-27 01:57 UTC.
Position N 55°13' E 014°58'.

Length 38 m; draft 2.3 m.

Type: Ship. MMSI: 219000751.

Date/timePositionNaut miles runAvg speedWind from/ knotsBaromVisibWave heightAir tempDewpointWater temp
2016-Sep-27 00:34N 55°13' E 014°58'0 0.0
2016-Sep-26 20:33N 55°13' E 014°58'0 0.0
2016-Sep-26 19:34N 55°13' E 014°58'0 0.0
2016-Sep-26 15:34N 55°13' E 014°58'0 0.0
2016-Sep-26 13:34N 55°13' E 014°58'10 4.9
2016-Sep-26 11:33N 55°19' E 015°11'4 1.3
2016-Sep-26 08:34N 55°16' E 015°06'6 1.0
2016-Sep-26 02:34N 55°13' E 014°58'0 0.0
2016-Sep-26 01:34N 55°13' E 014°58'0 0.0
2016-Sep-26 00:34N 55°13' E 014°58'0 0.0
2016-Sep-25 21:33N 55°13' E 014°58'0 0.0
2016-Sep-25 17:34N 55°13' E 014°58'0 0.0
2016-Sep-25 16:34N 55°13' E 014°58'0 0.0
2016-Sep-25 15:34N 55°13' E 014°58'0 0.0
2016-Sep-25 14:33N 55°13' E 014°58'4 2.0
2016-Sep-25 12:33N 55°16' E 015°03'6 5.8
2016-Sep-25 11:34N 55°19' E 015°11'0 0.0
2016-Sep-25 10:34N 55°19' E 015°11'0 0.0
2016-Sep-25 09:34N 55°19' E 015°11'10 4.9
2016-Sep-25 07:34N 55°13' E 014°58'0 0.0
2016-Sep-25 04:33N 55°13' E 014°58'0 0.0
2016-Sep-25 00:33N 55°13' E 014°58'0 0.0
2016-Sep-24 22:34N 55°13' E 014°58'0 0.0
2016-Sep-24 21:34N 55°13' E 014°58'0 0.0
2016-Sep-24 19:33N 55°13' E 014°58'0 0.0
2016-Sep-24 18:34N 55°13' E 014°58'0 0.0
2016-Sep-24 17:34N 55°13' E 014°58'0 0.0
2016-Sep-24 16:34N 55°13' E 014°58'0 0.0
2016-Sep-24 14:34N 55°13' E 014°58'4 2.1
2016-Sep-24 12:34N 55°16' E 015°03'6 2.8
2016-Sep-24 10:34N 55°19' E 015°11'0 0.0
2016-Sep-24 09:34N 55°19' E 015°11'10 1.6
2016-Sep-24 03:33N 55°13' E 014°58'0 0.0
2016-Sep-24 02:34N 55°13' E 014°58'0 0.0
2016-Sep-24 01:34N 55°13' E 014°58'0 0.0
2016-Sep-24 00:33N 55°13' E 014°58'0 0.0
2016-Sep-23 19:33N 55°13' E 014°58'0 0.0
2016-Sep-23 17:34N 55°13' E 014°58'0 0.0
2016-Sep-23 16:33N 55°13' E 014°58'0 0.0
2016-Sep-23 15:33N 55°13' E 014°58'0 0.0
2016-Sep-23 13:34N 55°13' E 014°58'10 2.4
2016-Sep-23 09:34N 55°19' E 015°11'10 3.3
2016-Sep-23 06:33N 55°13' E 014°58'0 0.0
2016-Sep-23 04:34N 55°13' E 014°58'0 0.0
2016-Sep-23 03:34N 55°13' E 014°58'0 0.0
2016-Sep-23 02:34N 55°13' E 014°58'0 0.0
2016-Sep-23 01:34N 55°13' E 014°58'0 0.0
2016-Sep-23 00:33N 55°13' E 014°58'0 0.0
2016-Sep-22 23:34N 55°13' E 014°58'0 0.0
2016-Sep-22 20:34N 55°13' E 014°58'4 0.5
2016-Sep-22 12:33N 55°15' E 015°04'4 0.5
2016-Sep-22 04:33N 55°13' E 014°58'0 0.0
2016-Sep-22 03:34N 55°13' E 014°58'0 0.0
2016-Sep-22 00:34N 55°13' E 014°58'0 0.0
2016-Sep-21 23:33N 55°13' E 014°58'0 0.0
2016-Sep-21 22:33N 55°13' E 014°58'0 0.0
2016-Sep-21 19:33N 55°13' E 014°58'0 0.0
2016-Sep-21 16:33N 55°13' E 014°58'6 0.9
2016-Sep-21 09:34N 55°17' E 015°07'1 0.7
2016-Sep-21 08:34N 55°17' E 015°06'9 1.7
2016-Sep-21 03:18N 55°15' E 014°50'13 1.3
2016-Sep-20 17:34N 55°19' E 015°11'3 0.9
2016-Sep-20 14:33N 55°18' E 015°07'3 2.6
2016-Sep-20 13:34N 55°16' E 015°04'4 1.4
2016-Sep-20 10:34N 55°13' E 014°59'6 2.8
2016-Sep-20 08:34N 55°17' E 015°05'6 6.0
2016-Sep-20 07:34N 55°13' E 014°58'0 0.0
2016-Sep-20 06:33N 55°13' E 014°58'0 0.0
2016-Sep-20 02:34N 55°13' E 014°58'0 0.0
2016-Sep-19 23:34N 55°13' E 014°58'0 0.0
2016-Sep-19 19:33N 55°13' E 014°58'0 0.0
2016-Sep-19 18:33N 55°13' E 014°58'0 0.0
2016-Sep-19 16:33N 55°13' E 014°58'7 3.5
2016-Sep-19 14:34N 55°18' E 015°07'3 2.6
2016-Sep-19 13:33N 55°16' E 015°04'1 0.9
2016-Sep-19 12:33N 55°15' E 015°03'6 6.3
2016-Sep-19 11:33N 55°19' E 015°11'5 2.4
2016-Sep-19 09:34N 55°16' E 015°05'5 2.4
2016-Sep-19 07:31N 55°13' E 014°58'5 5.4
2016-Sep-19 06:33N 55°15' E 014°50'0 0.0
2016-Sep-19 03:33N 55°15' E 014°50'0 0.0
2016-Sep-19 02:33N 55°15' E 014°50'0 0.0
2016-Sep-19 00:33N 55°15' E 014°50'0 0.0
2016-Sep-18 19:30N 55°15' E 014°50'0 0.0
2016-Sep-18 15:32N 55°15' E 014°50'0 0.0
2016-Sep-18 14:33N 55°15' E 014°50'13 3.2
2016-Sep-18 10:34N 55°19' E 015°11'0 0.0
2016-Sep-18 09:34N 55°19' E 015°11'13 1.8
2016-Sep-18 02:33N 55°15' E 014°50'0 0.0
2016-Sep-18 01:33N 55°15' E 014°50'0 0.0
2016-Sep-18 00:33N 55°15' E 014°50'0 0.0
2016-Sep-17 22:33N 55°15' E 014°50'0 0.0
2016-Sep-17 21:33N 55°15' E 014°50'0 0.0
2016-Sep-17 20:33N 55°15' E 014°50'0 0.0
2016-Sep-17 19:16N 55°15' E 014°50'0 0.0
2016-Sep-17 13:32N 55°15' E 014°50'7 7.6
2016-Sep-17 12:33N 55°18' E 015°02'5 2.7
2016-Sep-17 10:33N 55°19' E 015°11'0 0.0
2016-Sep-17 09:34N 55°19' E 015°11'5 5.1
2016-Sep-17 08:34N 55°16' E 015°04'5 5.1
2016-Sep-17 07:34N 55°13' E 014°57'4 2.1
2016-Sep-17 05:33N 55°15' E 014°50'0 0.0
2016-Sep-17 04:33N 55°15' E 014°50'  
Track history (hours):
 
Tides and Currents Weather Stations Pressure Air Temp Water Temp Dewpoint Dewpoint Depression Visibility Wind Speed Wind Dir Waves Ship Positions

Ertholm

Last reported at 2016-Sep-27 00:34 UTC. Time now 2016-Sep-27 01:57 UTC.
Position N 55°13' E 014°58'.

Length 38 m; draft 2.3 m.

Type: Ship. MMSI: 219000751.

Date/timePositionNaut miles runAvg speedWind from/ knotsBaromVisibWave heightAir tempDewpointWater temp
2016-Sep-27 00:34N 55°13' E 014°58'0 0.0
2016-Sep-26 20:33N 55°13' E 014°58'0 0.0
2016-Sep-26 19:34N 55°13' E 014°58'0 0.0
2016-Sep-26 15:34N 55°13' E 014°58'0 0.0
2016-Sep-26 13:34N 55°13' E 014°58'10 4.9
2016-Sep-26 11:33N 55°19' E 015°11'4 1.3
2016-Sep-26 08:34N 55°16' E 015°06'6 1.0
2016-Sep-26 02:34N 55°13' E 014°58'0 0.0
2016-Sep-26 01:34N 55°13' E 014°58'0 0.0
2016-Sep-26 00:34N 55°13' E 014°58'0 0.0
2016-Sep-25 21:33N 55°13' E 014°58'0 0.0
2016-Sep-25 17:34N 55°13' E 014°58'0 0.0
2016-Sep-25 16:34N 55°13' E 014°58'0 0.0
2016-Sep-25 15:34N 55°13' E 014°58'0 0.0
2016-Sep-25 14:33N 55°13' E 014°58'4 2.0
2016-Sep-25 12:33N 55°16' E 015°03'6 5.8
2016-Sep-25 11:34N 55°19' E 015°11'0 0.0
2016-Sep-25 10:34N 55°19' E 015°11'0 0.0
2016-Sep-25 09:34N 55°19' E 015°11'10 4.9
2016-Sep-25 07:34N 55°13' E 014°58'0 0.0
2016-Sep-25 04:33N 55°13' E 014°58'0 0.0
2016-Sep-25 00:33N 55°13' E 014°58'0 0.0
2016-Sep-24 22:34N 55°13' E 014°58'0 0.0
2016-Sep-24 21:34N 55°13' E 014°58'0 0.0
2016-Sep-24 19:33N 55°13' E 014°58'0 0.0
2016-Sep-24 18:34N 55°13' E 014°58'0 0.0
2016-Sep-24 17:34N 55°13' E 014°58'0 0.0
2016-Sep-24 16:34N 55°13' E 014°58'0 0.0
2016-Sep-24 14:34N 55°13' E 014°58'4 2.1
2016-Sep-24 12:34N 55°16' E 015°03'6 2.8
2016-Sep-24 10:34N 55°19' E 015°11'0 0.0
2016-Sep-24 09:34N 55°19' E 015°11'10 1.6
2016-Sep-24 03:33N 55°13' E 014°58'0 0.0
2016-Sep-24 02:34N 55°13' E 014°58'0 0.0
2016-Sep-24 01:34N 55°13' E 014°58'0 0.0
2016-Sep-24 00:33N 55°13' E 014°58'0 0.0
2016-Sep-23 19:33N 55°13' E 014°58'0 0.0
2016-Sep-23 17:34N 55°13' E 014°58'0 0.0
2016-Sep-23 16:33N 55°13' E 014°58'0 0.0
2016-Sep-23 15:33N 55°13' E 014°58'0 0.0
2016-Sep-23 13:34N 55°13' E 014°58'10 2.4
2016-Sep-23 09:34N 55°19' E 015°11'10 3.3
2016-Sep-23 06:33N 55°13' E 014°58'0 0.0
2016-Sep-23 04:34N 55°13' E 014°58'0 0.0
2016-Sep-23 03:34N 55°13' E 014°58'0 0.0
2016-Sep-23 02:34N 55°13' E 014°58'0 0.0
2016-Sep-23 01:34N 55°13' E 014°58'0 0.0
2016-Sep-23 00:33N 55°13' E 014°58'0 0.0
2016-Sep-22 23:34N 55°13' E 014°58'0 0.0
2016-Sep-22 20:34N 55°13' E 014°58'4 0.5
2016-Sep-22 12:33N 55°15' E 015°04'4 0.5
2016-Sep-22 04:33N 55°13' E 014°58'0 0.0
2016-Sep-22 03:34N 55°13' E 014°58'0 0.0
2016-Sep-22 00:34N 55°13' E 014°58'0 0.0
2016-Sep-21 23:33N 55°13' E 014°58'0 0.0
2016-Sep-21 22:33N 55°13' E 014°58'0 0.0
2016-Sep-21 19:33N 55°13' E 014°58'0 0.0
2016-Sep-21 16:33N 55°13' E 014°58'6 0.9
2016-Sep-21 09:34N 55°17' E 015°07'1 0.7
2016-Sep-21 08:34N 55°17' E 015°06'9 1.7
2016-Sep-21 03:18N 55°15' E 014°50'13 1.3
2016-Sep-20 17:34N 55°19' E 015°11'3 0.9
2016-Sep-20 14:33N 55°18' E 015°07'3 2.6
2016-Sep-20 13:34N 55°16' E 015°04'4 1.4
2016-Sep-20 10:34N 55°13' E 014°59'6 2.8
2016-Sep-20 08:34N 55°17' E 015°05'6 6.0
2016-Sep-20 07:34N 55°13' E 014°58'0 0.0
2016-Sep-20 06:33N 55°13' E 014°58'0 0.0
2016-Sep-20 02:34N 55°13' E 014°58'0 0.0
2016-Sep-19 23:34N 55°13' E 014°58'0 0.0
2016-Sep-19 19:33N 55°13' E 014°58'0 0.0
2016-Sep-19 18:33N 55°13' E 014°58'0 0.0
2016-Sep-19 16:33N 55°13' E 014°58'7 3.5
2016-Sep-19 14:34N 55°18' E 015°07'3 2.6
2016-Sep-19 13:33N 55°16' E 015°04'1 0.9
2016-Sep-19 12:33N 55°15' E 015°03'6 6.3
2016-Sep-19 11:33N 55°19' E 015°11'5 2.4
2016-Sep-19 09:34N 55°16' E 015°05'5 2.4
2016-Sep-19 07:31N 55°13' E 014°58'5 5.4
2016-Sep-19 06:33N 55°15' E 014°50'0 0.0
2016-Sep-19 03:33N 55°15' E 014°50'0 0.0
2016-Sep-19 02:33N 55°15' E 014°50'0 0.0
2016-Sep-19 00:33N 55°15' E 014°50'0 0.0
2016-Sep-18 19:30N 55°15' E 014°50'0 0.0
2016-Sep-18 15:32N 55°15' E 014°50'0 0.0
2016-Sep-18 14:33N 55°15' E 014°50'13 3.2
2016-Sep-18 10:34N 55°19' E 015°11'0 0.0
2016-Sep-18 09:34N 55°19' E 015°11'13 1.8
2016-Sep-18 02:33N 55°15' E 014°50'0 0.0
2016-Sep-18 01:33N 55°15' E 014°50'0 0.0
2016-Sep-18 00:33N 55°15' E 014°50'0 0.0
2016-Sep-17 22:33N 55°15' E 014°50'0 0.0
2016-Sep-17 21:33N 55°15' E 014°50'0 0.0
2016-Sep-17 20:33N 55°15' E 014°50'0 0.0
2016-Sep-17 19:16N 55°15' E 014°50'0 0.0
2016-Sep-17 13:32N 55°15' E 014°50'7 7.6
2016-Sep-17 12:33N 55°18' E 015°02'5 2.7
2016-Sep-17 10:33N 55°19' E 015°11'0 0.0
2016-Sep-17 09:34N 55°19' E 015°11'5 5.1
2016-Sep-17 08:34N 55°16' E 015°04'5 5.1
2016-Sep-17 07:34N 55°13' E 014°57'4 2.1
2016-Sep-17 05:33N 55°15' E 014°50'0 0.0
2016-Sep-17 04:33N 55°15' E 014°50'  

Dump ship's entire track history